createdAt,value
2023-04-10T00:01:19.795Z,3.69
2023-04-10T00:04:24.836Z,3.65
2023-04-10T00:07:27.827Z,3.56
2023-04-10T00:10:33.451Z,3.53
2023-04-10T00:13:37.741Z,3.45
2023-04-10T00:16:41.055Z,3.37
2023-04-10T00:19:43.993Z,3.34
2023-04-10T00:22:47.157Z,3.35
2023-04-10T00:25:50.115Z,3.34
2023-04-10T00:28:53.319Z,3.29
2023-04-10T00:31:56.315Z,3.30
2023-04-10T00:34:59.665Z,3.37
2023-04-10T00:38:02.618Z,3.39
2023-04-10T00:41:06.579Z,3.36
2023-04-10T00:44:09.430Z,3.39
2023-04-10T00:47:14.309Z,3.29
2023-04-10T00:50:18.495Z,3.21
2023-04-10T00:53:22.211Z,3.17
2023-04-10T00:56:25.593Z,3.24
2023-04-10T00:59:29.253Z,3.21
2023-04-10T01:02:32.433Z,3.22
2023-04-10T01:05:46.694Z,3.27
2023-04-10T01:09:01.493Z,3.21
2023-04-10T01:12:56.475Z,3.18
2023-04-10T01:16:37.028Z,3.11
2023-04-10T01:20:02.350Z,3.09
2023-04-10T01:23:32.887Z,3.08
2023-04-10T01:26:55.118Z,3.04
2023-04-10T01:30:00.732Z,3.01
2023-04-10T01:33:06.686Z,3.14
2023-04-10T01:36:10.365Z,3.17
2023-04-10T01:39:15.010Z,3.16
2023-04-10T01:42:20.104Z,3.10
2023-04-10T01:45:26.291Z,3.12
2023-04-10T01:48:30.593Z,3.16
2023-04-10T01:51:34.747Z,3.10
2023-04-10T01:54:39.116Z,3.07
2023-04-10T01:57:42.510Z,3.06
2023-04-10T02:00:45.783Z,3.02
2023-04-10T02:03:49.632Z,2.96
2023-04-10T02:07:04.882Z,2.99
2023-04-10T02:10:21.612Z,3.13
2023-04-10T02:13:26.851Z,3.14
2023-04-10T02:16:31.248Z,3.11
2023-04-10T02:19:34.823Z,3.00
2023-04-10T02:22:38.074Z,3.06
2023-04-10T02:25:42.113Z,3.03
2023-04-10T02:28:46.028Z,3.02
2023-04-10T02:31:49.253Z,2.97
2023-04-10T02:34:52.401Z,2.99
2023-04-10T02:37:55.658Z,2.93
2023-04-10T02:40:58.893Z,2.90
2023-04-10T02:44:01.975Z,2.97
2023-04-10T02:47:07.294Z,3.02
2023-04-10T02:50:12.172Z,3.02
2023-04-10T02:53:17.454Z,3.01
2023-04-10T02:56:20.962Z,3.01
2023-04-10T02:59:24.437Z,2.99
2023-04-10T03:02:28.071Z,2.87
2023-04-10T03:05:32.842Z,2.86
2023-04-10T03:08:35.813Z,2.96
2023-04-10T03:11:39.073Z,2.88
2023-04-10T03:14:42.100Z,2.85
2023-04-10T03:17:46.926Z,2.75
2023-04-10T03:20:52.371Z,2.68
2023-04-10T03:23:56.482Z,2.57
2023-04-10T03:26:59.514Z,2.54
2023-04-10T03:30:05.929Z,2.57
2023-04-10T03:33:14.874Z,2.56
2023-04-10T03:36:18.350Z,2.56
2023-04-10T03:39:26.310Z,2.51
2023-04-10T03:42:29.679Z,2.40
2023-04-10T03:45:34.690Z,2.34
2023-04-10T03:48:39.347Z,2.29
2023-04-10T03:51:42.217Z,2.33
2023-04-10T03:54:45.642Z,2.30
2023-04-10T03:57:53.848Z,2.29
2023-04-10T04:00:57.626Z,2.25
2023-04-10T04:04:01.758Z,2.21
2023-04-10T04:07:11.352Z,2.14
2023-04-10T04:10:16.513Z,2.06
2023-04-10T04:13:24.547Z,2.03
2023-04-10T04:16:29.383Z,2.13
2023-04-10T04:19:32.375Z,2.16
2023-04-10T04:22:37.045Z,2.21
2023-04-10T04:25:40.943Z,2.16
2023-04-10T04:28:44.579Z,2.15
2023-04-10T04:31:48.754Z,2.25
2023-04-10T04:34:52.287Z,2.26
2023-04-10T04:37:55.762Z,2.30
2023-04-10T04:40:59.664Z,2.37
2023-04-10T04:44:05.552Z,2.37
2023-04-10T04:47:09.214Z,2.35
2023-04-10T04:50:12.678Z,2.34
2023-04-10T04:53:16.717Z,2.39
2023-04-10T04:56:19.978Z,2.47
2023-04-10T04:59:23.716Z,2.51
2023-04-10T05:02:28.568Z,2.53
2023-04-10T05:05:33.452Z,2.52
2023-04-10T05:08:38.649Z,2.53
2023-04-10T05:11:42.003Z,2.56
2023-04-10T05:14:47.484Z,2.55
2023-04-10T05:17:53.550Z,2.61
2023-04-10T05:21:01.932Z,2.69
2023-04-10T05:24:07.215Z,2.77
2023-04-10T05:27:12.261Z,2.83
2023-04-10T05:30:18.503Z,2.91
2023-04-10T05:33:21.562Z,3.02
2023-04-10T05:36:26.868Z,3.12
2023-04-10T05:39:31.611Z,3.20
2023-04-10T05:42:36.082Z,3.27
2023-04-10T05:45:39.065Z,3.33
2023-04-10T05:48:42.527Z,3.41
2023-04-10T05:51:50.380Z,3.54
2023-04-10T05:54:53.713Z,3.67
2023-04-10T05:57:56.900Z,3.58
2023-04-10T06:01:00.350Z,3.60
2023-04-10T06:04:05.184Z,3.66
2023-04-10T06:07:09.165Z,3.58
2023-04-10T06:10:12.497Z,3.37
2023-04-10T06:13:15.679Z,3.57
2023-04-10T06:16:19.044Z,3.59
2023-04-10T06:19:22.074Z,4.00
2023-04-10T06:22:27.195Z,4.19
2023-04-10T06:25:30.135Z,4.50
2023-04-10T06:28:34.993Z,4.59
2023-04-10T06:31:39.968Z,4.60
2023-04-10T06:34:47.958Z,4.76
2023-04-10T06:37:51.997Z,4.37
2023-04-10T06:40:56.664Z,4.23
2023-04-10T06:44:01.761Z,4.81
2023-04-10T06:47:09.299Z,4.87
2023-04-10T06:50:13.546Z,4.34
2023-04-10T06:53:17.005Z,4.66
2023-04-10T06:56:21.252Z,4.71
2023-04-10T06:59:24.495Z,4.89
2023-04-10T07:02:27.601Z,5.02
2023-04-10T07:05:31.019Z,5.30
2023-04-10T07:08:34.154Z,5.26
2023-04-10T07:11:37.340Z,4.73
2023-04-10T07:14:40.329Z,4.76
2023-04-10T07:17:44.075Z,5.49
2023-04-10T07:20:47.077Z,5.38
2023-04-10T07:23:50.272Z,5.83
2023-04-10T07:26:53.217Z,5.27
2023-04-10T07:29:57.166Z,5.14
2023-04-10T07:33:01.740Z,5.57
2023-04-10T07:36:07.108Z,6.05
2023-04-10T07:39:10.029Z,5.34
2023-04-10T07:42:14.682Z,5.60
2023-04-10T07:45:17.546Z,5.69
2023-04-10T07:48:20.756Z,6.06
2023-04-10T07:51:23.890Z,6.22
2023-04-10T07:54:27.136Z,6.27
2023-04-10T07:57:30.668Z,6.47
2023-04-10T08:00:34.533Z,6.62
2023-04-10T08:03:41.979Z,6.92
2023-04-10T08:06:44.908Z,7.37
2023-04-10T08:09:48.384Z,7.27
2023-04-10T08:12:51.338Z,7.42
2023-04-10T08:15:54.544Z,7.65
2023-04-10T08:18:58.166Z,7.31
2023-04-10T08:22:01.443Z,7.55
2023-04-10T08:25:06.321Z,7.76
2023-04-10T08:28:09.560Z,7.88
2023-04-10T08:31:14.709Z,7.91
2023-04-10T08:34:19.316Z,8.22
2023-04-10T08:37:22.306Z,8.57
2023-04-10T08:40:25.671Z,8.47
2023-04-10T08:43:28.912Z,8.46
2023-04-10T08:46:33.934Z,8.70
2023-04-10T08:49:39.341Z,9.13
2023-04-10T08:52:44.119Z,9.17
2023-04-10T08:55:47.211Z,9.16
2023-04-10T08:58:52.173Z,9.25
2023-04-10T09:01:55.269Z,9.63
2023-04-10T09:05:00.587Z,9.42
2023-04-10T09:08:08.100Z,9.69
2023-04-10T09:11:13.463Z,9.83
2023-04-10T09:14:23.073Z,9.91
2023-04-10T09:17:26.326Z,10.22
2023-04-10T09:20:32.685Z,10.37
2023-04-10T09:23:35.804Z,10.66
2023-04-10T09:26:38.668Z,10.68
2023-04-10T09:29:49.202Z,10.82
2023-04-10T09:32:52.322Z,10.84
2023-04-10T09:35:58.181Z,11.02
2023-04-10T09:39:01.046Z,11.28
2023-04-10T09:42:04.726Z,10.98
2023-04-10T09:45:07.843Z,11.27
2023-04-10T09:48:11.348Z,11.55
2023-04-10T09:51:31.755Z,11.56
2023-04-10T09:54:38.256Z,11.73
2023-04-10T09:57:41.290Z,12.04
2023-04-10T10:00:49.574Z,12.11
2023-04-10T10:03:57.290Z,12.14
2023-04-10T10:07:01.671Z,12.44
2023-04-10T10:10:07.446Z,12.24
2023-04-10T10:13:11.346Z,12.39
2023-04-10T10:16:32.565Z,12.30
2023-04-10T10:19:46.406Z,12.88
2023-04-10T10:22:50.841Z,13.15
2023-04-10T10:25:54.619Z,12.88
2023-04-10T10:28:58.580Z,12.95
2023-04-10T10:32:03.164Z,13.91
2023-04-10T10:35:08.091Z,13.43
2023-04-10T10:38:11.258Z,13.19
2023-04-10T10:41:21.425Z,13.03
2023-04-10T10:44:32.293Z,13.44
2023-04-10T10:47:50.142Z,13.37
2023-04-10T10:51:02.885Z,13.72
2023-04-10T10:54:35.080Z,13.11
2023-04-10T10:57:48.530Z,13.39
2023-04-10T11:00:52.697Z,13.18
2023-04-10T11:03:56.036Z,13.64
2023-04-10T11:07:00.662Z,13.46
2023-04-10T11:10:03.677Z,13.92
2023-04-10T11:13:16.275Z,13.83
2023-04-10T11:16:24.734Z,14.01
2023-04-10T11:19:28.428Z,13.40
2023-04-10T11:22:31.489Z,13.44
2023-04-10T11:25:52.572Z,13.24
2023-04-10T11:28:55.866Z,13.42
2023-04-10T11:32:01.541Z,13.48
2023-04-10T11:35:05.272Z,13.79
2023-04-10T11:38:13.982Z,14.18
2023-04-10T11:41:16.961Z,14.71
2023-04-10T11:44:27.765Z,15.28
2023-04-10T11:47:31.080Z,14.46
2023-04-10T11:50:36.315Z,14.76
2023-04-10T11:53:40.098Z,14.93
2023-04-10T11:56:44.951Z,15.57
2023-04-10T11:59:50.723Z,15.68
2023-04-10T12:02:54.295Z,15.51
2023-04-10T12:05:57.844Z,15.84
2023-04-10T12:09:00.702Z,16.46
2023-04-10T12:12:05.722Z,14.99
2023-04-10T12:15:28.779Z,14.29
2023-04-10T12:18:32.447Z,15.52
2023-04-10T12:21:40.085Z,15.65
2023-04-10T12:24:47.868Z,16.09
2023-04-10T12:27:51.801Z,16.66
2023-04-10T12:30:55.234Z,17.50
2023-04-10T12:33:59.179Z,17.84
2023-04-10T12:37:03.053Z,20.04
2023-04-10T12:40:07.504Z,20.15
2023-04-10T12:43:10.812Z,19.99
2023-04-10T12:46:24.424Z,21.56
2023-04-10T12:49:27.743Z,23.45
2023-04-10T12:52:30.668Z,21.21
2023-04-10T12:55:33.927Z,20.17
2023-04-10T12:58:37.163Z,18.35
2023-04-10T13:01:40.661Z,20.58
2023-04-10T13:04:43.805Z,19.80
2023-04-10T13:07:47.378Z,20.42
2023-04-10T13:10:50.654Z,22.02
2023-04-10T13:13:53.876Z,22.87
2023-04-10T13:16:57.630Z,22.39
2023-04-10T13:20:00.962Z,23.09
2023-04-10T13:23:04.599Z,20.23
2023-04-10T13:26:07.756Z,21.80
2023-04-10T13:29:10.793Z,21.86
2023-04-10T13:32:13.957Z,20.85
2023-04-10T13:35:16.886Z,20.32
2023-04-10T13:38:21.407Z,23.03
2023-04-10T13:41:24.772Z,23.87
2023-04-10T13:44:28.454Z,22.33
2023-04-10T13:47:31.424Z,21.97
2023-04-10T13:50:34.630Z,22.67
2023-04-10T13:53:37.597Z,22.99
2023-04-10T13:56:41.420Z,23.16
2023-04-10T13:59:45.769Z,23.12
2023-04-10T14:02:49.214Z,23.19
2023-04-10T14:05:53.010Z,21.44
2023-04-10T14:08:56.177Z,22.88
2023-04-10T14:11:59.586Z,22.56
2023-04-10T14:15:02.550Z,21.44
2023-04-10T14:18:05.826Z,22.18
2023-04-10T14:21:08.862Z,23.92
2023-04-10T14:24:12.188Z,23.57
2023-04-10T14:27:15.227Z,24.72
2023-04-10T14:30:19.001Z,25.05
2023-04-10T14:33:22.001Z,24.89
2023-04-10T14:36:25.644Z,23.51
2023-04-10T14:39:28.720Z,23.12
2023-04-10T14:42:33.088Z,24.03
2023-04-10T14:45:36.056Z,22.27
2023-04-10T14:48:40.560Z,22.02
2023-04-10T14:51:44.914Z,22.78
2023-04-10T14:54:48.188Z,22.85
2023-04-10T14:57:51.148Z,22.17
2023-04-10T15:00:54.600Z,22.15
2023-04-10T15:03:57.791Z,21.65
2023-04-10T15:07:01.593Z,22.86
2023-04-10T15:10:05.147Z,21.48
2023-04-10T15:13:13.576Z,19.74
2023-04-10T15:16:17.051Z,20.92
2023-04-10T15:19:20.405Z,20.21
2023-04-10T15:22:23.267Z,21.31
2023-04-10T15:25:26.438Z,20.44
2023-04-10T15:28:29.380Z,21.20
2023-04-10T15:31:32.572Z,21.43
2023-04-10T15:34:35.631Z,21.25
2023-04-10T15:37:39.620Z,21.52
2023-04-10T15:40:42.524Z,22.47
2023-04-10T15:43:45.845Z,20.22
2023-04-10T15:46:48.812Z,19.35
2023-04-10T15:49:52.042Z,18.30
2023-04-10T15:52:54.997Z,18.26
2023-04-10T15:55:58.889Z,19.92
2023-04-10T15:59:01.834Z,19.83
2023-04-10T16:02:05.249Z,21.38
2023-04-10T16:05:09.450Z,21.63
2023-04-10T16:08:12.513Z,21.15
2023-04-10T16:11:15.786Z,19.03
2023-04-10T16:14:20.214Z,18.12
2023-04-10T16:17:23.412Z,17.33
2023-04-10T16:20:28.708Z,16.99
2023-04-10T16:23:33.134Z,16.50
2023-04-10T16:26:36.146Z,16.23
2023-04-10T16:29:39.406Z,16.55
2023-04-10T16:32:42.471Z,16.58
2023-04-10T16:35:45.723Z,16.63
2023-04-10T16:38:49.983Z,16.01
2023-04-10T16:41:53.734Z,16.99
2023-04-10T16:44:58.838Z,17.38
2023-04-10T16:48:02.254Z,18.47
2023-04-10T16:51:06.889Z,17.86
2023-04-10T16:54:10.140Z,17.58
2023-04-10T16:57:13.023Z,16.68
2023-04-10T17:00:16.703Z,16.36
2023-04-10T17:03:19.658Z,16.04
2023-04-10T17:06:22.960Z,16.47
2023-04-10T17:09:26.407Z,16.40
2023-04-10T17:12:29.746Z,16.40
2023-04-10T17:15:32.623Z,15.87
2023-04-10T17:18:36.239Z,15.83
2023-04-10T17:21:39.200Z,15.75
2023-04-10T17:24:43.765Z,15.05
2023-04-10T17:27:46.662Z,14.86
2023-04-10T17:30:49.819Z,14.64
2023-04-10T17:33:52.682Z,14.20
2023-04-10T17:36:56.447Z,14.08
2023-04-10T17:39:59.424Z,13.82
2023-04-10T17:43:02.900Z,13.72
2023-04-10T17:46:07.169Z,13.85
2023-04-10T17:49:10.518Z,13.74
2023-04-10T17:52:14.404Z,13.71
2023-04-10T17:55:20.889Z,13.69
2023-04-10T17:58:25.596Z,13.64
2023-04-10T18:01:31.752Z,13.65
2023-04-10T18:04:35.472Z,13.58
2023-04-10T18:07:39.146Z,13.53
2023-04-10T18:10:42.457Z,13.35
2023-04-10T18:13:47.564Z,13.36
2023-04-10T18:16:50.764Z,13.31
2023-04-10T18:19:56.616Z,13.13
2023-04-10T18:22:59.903Z,13.00
2023-04-10T18:26:04.373Z,12.87
2023-04-10T18:29:08.144Z,12.72
2023-04-10T18:32:11.580Z,12.78
2023-04-10T18:35:14.873Z,12.70
2023-04-10T18:38:18.676Z,12.76
2023-04-10T18:41:21.941Z,12.75
2023-04-10T18:44:25.479Z,12.73
2023-04-10T18:47:29.606Z,12.73
2023-04-10T18:50:39.074Z,12.52
2023-04-10T18:53:42.729Z,12.48
2023-04-10T18:56:46.274Z,12.33
2023-04-10T18:59:49.423Z,12.36
2023-04-10T19:02:54.456Z,12.18
2023-04-10T19:05:59.132Z,12.24
2023-04-10T19:09:02.108Z,12.26
2023-04-10T19:12:05.460Z,12.13
2023-04-10T19:15:09.458Z,12.09
2023-04-10T19:18:14.966Z,12.09
2023-04-10T19:21:19.648Z,12.00
2023-04-10T19:24:23.141Z,11.94
2023-04-10T19:27:26.971Z,11.81
2023-04-10T19:30:30.667Z,11.82
2023-04-10T19:33:34.556Z,11.79
2023-04-10T19:36:38.337Z,11.68
2023-04-10T19:39:41.586Z,11.61
2023-04-10T19:42:46.002Z,11.56
2023-04-10T19:45:49.294Z,11.56
2023-04-10T19:48:53.011Z,11.54
2023-04-10T19:51:56.785Z,11.52
2023-04-10T19:55:00.197Z,11.40
2023-04-10T19:58:03.418Z,11.21
2023-04-10T20:01:09.208Z,11.05
2023-04-10T20:04:12.975Z,10.86
2023-04-10T20:07:16.217Z,10.76
2023-04-10T20:10:20.794Z,10.68
2023-04-10T20:13:23.965Z,10.56
2023-04-10T20:16:27.443Z,10.46
2023-04-10T20:19:30.430Z,10.37
2023-04-10T20:22:33.776Z,10.23
2023-04-10T20:25:38.115Z,10.15
2023-04-10T20:28:41.337Z,10.13
2023-04-10T20:31:44.271Z,10.11
2023-04-10T20:34:47.551Z,10.02
2023-04-10T20:37:50.452Z,9.91
2023-04-10T20:40:55.524Z,9.79
2023-04-10T20:43:58.600Z,9.42
2023-04-10T20:47:02.647Z,9.63
2023-04-10T20:50:06.355Z,9.64
2023-04-10T20:53:09.610Z,9.60
2023-04-10T20:56:12.837Z,9.49
2023-04-10T20:59:16.265Z,9.42
2023-04-10T21:02:19.281Z,9.32
2023-04-10T21:05:22.936Z,9.30
2023-04-10T21:08:25.761Z,9.34
2023-04-10T21:11:28.906Z,9.35
2023-04-10T21:14:31.804Z,9.28
2023-04-10T21:17:35.131Z,9.27
2023-04-10T21:20:38.154Z,9.21
2023-04-10T21:23:43.157Z,9.12
2023-04-10T21:26:46.079Z,9.10
2023-04-10T21:29:50.454Z,9.13
2023-04-10T21:32:53.366Z,9.03
2023-04-10T21:35:56.845Z,8.95
2023-04-10T21:38:59.862Z,8.85
2023-04-10T21:42:03.102Z,8.81
2023-04-10T21:45:06.918Z,8.78
2023-04-10T21:48:10.039Z,8.69
2023-04-10T21:51:13.019Z,8.63
2023-04-10T21:54:16.232Z,8.53
2023-04-10T21:57:19.180Z,8.46
2023-04-10T22:00:23.174Z,8.39
2023-04-10T22:03:27.441Z,8.39
2023-04-10T22:06:31.624Z,8.41
2023-04-10T22:09:34.746Z,8.40
2023-04-10T22:12:38.017Z,8.41
2023-04-10T22:15:41.286Z,8.36
2023-04-10T22:18:44.288Z,8.35
2023-04-10T22:21:47.644Z,8.41
2023-04-10T22:24:50.947Z,8.43
2023-04-10T22:27:54.241Z,8.27
2023-04-10T22:30:57.222Z,8.11
2023-04-10T22:34:01.003Z,8.07
2023-04-10T22:37:03.984Z,7.98
2023-04-10T22:40:07.931Z,7.94
2023-04-10T22:43:11.388Z,7.97
2023-04-10T22:46:14.652Z,8.03
2023-04-10T22:49:18.909Z,8.09
2023-04-10T22:52:22.187Z,8.10
2023-04-10T22:55:26.052Z,8.02
2023-04-10T22:58:29.179Z,7.88
2023-04-10T23:01:32.148Z,7.82
2023-04-10T23:04:35.509Z,7.87
2023-04-10T23:07:38.366Z,7.96
2023-04-10T23:10:41.614Z,7.94
2023-04-10T23:13:44.646Z,7.81
2023-04-10T23:16:47.928Z,7.74
2023-04-10T23:19:50.873Z,7.72
2023-04-10T23:22:55.663Z,7.64
2023-04-10T23:26:00.022Z,7.58
2023-04-10T23:29:03.351Z,7.52
2023-04-10T23:32:07.985Z,7.47
2023-04-10T23:35:12.491Z,7.46
2023-04-10T23:38:15.661Z,7.52
2023-04-10T23:41:20.316Z,7.51
2023-04-10T23:44:23.824Z,7.50
2023-04-10T23:47:27.227Z,7.46
2023-04-10T23:50:30.235Z,7.46
2023-04-10T23:53:33.769Z,7.46
2023-04-10T23:56:36.695Z,7.41
2023-04-10T23:59:39.875Z,7.35
